Flight Track Log - Related Links

Times and Time Zones

All times are in EDT time to prevent confusion due to time zone crossing. See the N5349M flight status page for this flight to view local times or setup timezone preferences in your user account.

Time Position Orientation Groundspeed Altitude Reporting Facility
EDT Latitude Longitude Course Direction KTS MPH feet Rate Location/Type
Wed 09:07:00 PM 34.4558 -78.0913 327° Northwest  Level FlightAware Approximate
Wed 09:08:00 PM 34.4870 -78.1236 316° Northwest  Level FlightAware Approximate
Wed 09:09:00 PM 34.5168 -78.1582 316° Northwest  Level FlightAware Approximate
Wed 09:10:00 PM 34.5465 -78.1928 316° Northwest  Level FlightAware Approximate
Wed 09:11:00 PM 34.5763 -78.2274 316° Northwest  Level FlightAware Approximate
Wed 09:12:00 PM 34.6060 -78.2621 316° Northwest  Level FlightAware Approximate
Wed 09:13:00 PM 34.6357 -78.2968 316° Northwest  Level FlightAware Approximate
Wed 09:14:00 PM 34.6654 -78.3315 316° Northwest  Level FlightAware Approximate
Wed 09:14:10 PM 34.5672 -78.3789 318° Northwest 170 196 6,000  Level Washington Center
Wed 09:18:12 PM 34.7117 -78.5228 321° Northwest 167 192 6,000  Level Washington Center
Wed 09:22:12 PM 34.8542 -78.6672 318° Northwest 166 191 6,000  Level Washington Center
Wed 09:26:13 PM 34.9944 -78.8069 323° Northwest 163 188 6,000  Level Washington Center
Wed 09:30:14 PM 35.1344 -78.9494 324° Northwest 162 186 6,000  Level Washington Center
Wed 09:33:54 PM 35.2581 -79.0794 326° Northwest 161 185 6,000  Level Washington Center
Wed 09:34:55 PM 35.2967 -79.1192 320° Northwest 157 181 6,000  Level Washington Center
Wed 09:35:00 PM 35.2855 -79.0699 324° Northwest  Level FlightAware Approximate
Wed 09:35:57 PM 35.3311 -79.1539 321° Northwest 161 185 6,000  Level Washington Center
Wed 09:36:55 PM 35.3656 -79.1883 321° Northwest 159 183 6,000  Level Washington Center
Wed 09:38:00 PM 35.4019 -79.2202 324° Northwest  Level FlightAware Approximate
Wed 09:39:00 PM 35.4292 -79.2047 326° Northwest  Level FlightAware Approximate
Wed 09:45:00 PM 35.6236 -79.4469 318° Northwest  Level Estimated
Wed 09:46:00 PM 35.6568 -79.4768 324° Northwest  Level FlightAware Approximate
Wed 09:47:00 PM 35.6900 -79.5068 324° Northwest  Level FlightAware Approximate
Wed 09:48:00 PM 35.7233 -79.5368 324° Northwest  Level FlightAware Approximate
Wed 09:49:00 PM 35.7565 -79.5668 324° Northwest  Level FlightAware Approximate
Wed 09:50:00 PM 35.7875 -79.6003 313° West  Level Estimated
Wed 09:51:00 PM 35.8191 -79.6328 320° Northwest  Level FlightAware Approximate
Wed 09:52:00 PM 35.8500 -79.6665 315° West  Level Estimated
Wed 09:53:00 PM 35.8802 -79.7011 317° Northwest  Level FlightAware Approximate
Wed 09:54:00 PM 35.9103 -79.7358 317° Northwest  Level FlightAware Approximate
Wed 09:55:00 PM 35.9404 -79.7706 317° Northwest  Level FlightAware Approximate
Wed 09:56:00 PM 35.9705 -79.8053 317° Northwest  Level FlightAware Approximate
Wed 09:57:00 PM 36.0021 -79.8381 338° Northwest  Level Estimated
Wed 09:58:00 PM 36.0336 -79.8708 338° Northwest  Level Estimated
Wed 09:59:00 PM 36.0652 -79.9036 338° Northwest  Level Estimated
Wed 10:00:00 PM 36.1000 -79.9333 338° Northwest  Level FlightAware Approximate
Wed 10:01:00 PM 36.1013 -79.9411 338° Northwest  Level Estimated
Wed 10:02:00 PM 36.1000 -79.9333 338° Northwest  Level FlightAware Approximate
Wed 10:03:00 PM 36.1013 -79.9411 338° Northwest  Level Estimated
Wed 10:04:00 PM 36.1000 -79.9333 338° Northwest  Level FlightAware Approximate
Wed 10:05:00 PM 36.1013 -79.9411 338° Northwest  Level Estimated
Wed 10:06:00 PM 36.1000 -79.9333 338° Northwest  Level FlightAware Approximate
Wed 10:07:00 PM 36.1013 -79.9411 338° Northwest  Level Estimated
Wed 10:08:00 PM 36.1000 -79.9333 338° Northwest  Level FlightAware Approximate
Wed 10:09:00 PM 36.1013 -79.9411 338° Northwest  Level Estimated

Login

Don't have an account? Register now (free) for customized features, flight alerts, and more!